sensor_id;sensor_type;location;lat;lon;timestamp;pressure;altitude;pressure_sealevel;temperature;humidity
69772;BME280;57046;45.988;18.664;2023-01-25T00:00:12;102242.88;;;7.47;90.16
69772;BME280;57046;45.988;18.664;2023-01-25T00:02:38;102239.38;;;7.46;89.16
69772;BME280;57046;45.988;18.664;2023-01-25T00:05:03;102252.06;;;7.51;89.22
69772;BME280;57046;45.988;18.664;2023-01-25T00:07:29;102251.50;;;7.49;88.62
69772;BME280;57046;45.988;18.664;2023-01-25T00:09:54;102253.09;;;7.45;88.70
69772;BME280;57046;45.988;18.664;2023-01-25T00:12:19;102252.06;;;7.51;88.00
69772;BME280;57046;45.988;18.664;2023-01-25T00:14:45;102245.03;;;7.45;88.64
69772;BME280;57046;45.988;18.664;2023-01-25T00:17:10;102248.81;;;7.49;88.40
69772;BME280;57046;45.988;18.664;2023-01-25T00:19:35;102235.28;;;7.39;88.12
69772;BME280;57046;45.988;18.664;2023-01-25T00:22:01;102243.09;;;7.40;87.78
69772;BME280;57046;45.988;18.664;2023-01-25T00:24:26;102238.75;;;7.34;87.37
69772;BME280;57046;45.988;18.664;2023-01-25T00:26:51;102245.22;;;7.38;87.54
69772;BME280;57046;45.988;18.664;2023-01-25T00:29:17;102243.91;;;7.41;87.07
69772;BME280;57046;45.988;18.664;2023-01-25T00:34:49;102255.06;;;7.54;87.13
69772;BME280;57046;45.988;18.664;2023-01-25T00:39:50;102252.06;;;7.51;86.84
69772;BME280;57046;45.988;18.664;2023-01-25T00:42:16;102251.16;;;7.40;86.90
69772;BME280;57046;45.988;18.664;2023-01-25T00:44:42;102243.03;;;7.35;86.76
69772;BME280;57046;45.988;18.664;2023-01-25T00:47:11;102255.69;;;7.35;87.58
69772;BME280;57046;45.988;18.664;2023-01-25T00:49:40;102252.31;;;7.49;86.95
69772;BME280;57046;45.988;18.664;2023-01-25T00:52:06;102258.00;;;7.53;86.70
69772;BME280;57046;45.988;18.664;2023-01-25T00:54:32;102254.50;;;7.52;86.67
69772;BME280;57046;45.988;18.664;2023-01-25T00:56:57;102259.53;;;7.44;86.88
69772;BME280;57046;45.988;18.664;2023-01-25T00:59:23;102250.09;;;7.41;86.51
69772;BME280;57046;45.988;18.664;2023-01-25T01:01:49;102239.28;;;7.36;86.87
69772;BME280;57046;45.988;18.664;2023-01-25T01:04:15;102240.66;;;7.39;86.89
69772;BME280;57046;45.988;18.664;2023-01-25T01:06:41;102238.47;;;7.36;86.44
69772;BME280;57046;45.988;18.664;2023-01-25T01:09:11;102250.72;;;7.48;86.50
69772;BME280;57046;45.988;18.664;2023-01-25T01:11:37;102241.47;;;7.39;86.47
69772;BME280;57046;45.988;18.664;2023-01-25T01:14:02;102253.84;;;7.40;86.79
69772;BME280;57046;45.988;18.664;2023-01-25T01:16:27;102234.66;;;7.32;87.34
69772;BME280;57046;45.988;18.664;2023-01-25T01:18:53;102241.97;;;7.36;86.82
69772;BME280;57046;45.988;18.664;2023-01-25T01:21:19;102236.88;;;7.35;86.83
69772;BME280;57046;45.988;18.664;2023-01-25T01:23:44;102228.81;;;7.35;86.92
69772;BME280;57046;45.988;18.664;2023-01-25T01:26:15;102243.09;;;7.40;86.80
69772;BME280;57046;45.988;18.664;2023-01-25T01:28:41;102235.53;;;7.37;87.02
69772;BME280;57046;45.988;18.664;2023-01-25T01:31:13;102230.88;;;7.28;87.27
69772;BME280;57046;45.988;18.664;2023-01-25T01:33:38;102219.31;;;7.27;87.19
69772;BME280;57046;45.988;18.664;2023-01-25T01:36:12;102237.03;;;7.28;86.97
69772;BME280;57046;45.988;18.664;2023-01-25T01:38:38;102221.38;;;7.20;87.09
69772;BME280;57046;45.988;18.664;2023-01-25T01:41:04;102227.09;;;7.29;87.06
69772;BME280;57046;45.988;18.664;2023-01-25T01:43:30;102232.25;;;7.30;87.01
69772;BME280;57046;45.988;18.664;2023-01-25T01:45:58;102241.63;;;7.28;87.07
69772;BME280;57046;45.988;18.664;2023-01-25T01:59:17;102238.84;;;7.18;87.03
69772;BME280;57046;45.988;18.664;2023-01-25T02:01:44;102237.22;;;7.16;87.35
69772;BME280;57046;45.988;18.664;2023-01-25T02:04:11;102242.63;;;7.22;87.45
69772;BME280;57046;45.988;18.664;2023-01-25T02:09:10;102217.56;;;7.16;87.34
69772;BME280;57046;45.988;18.664;2023-01-25T02:11:37;102214.84;;;7.11;87.54
69772;BME280;57046;45.988;18.664;2023-01-25T02:14:02;102208.59;;;7.05;86.97
69772;BME280;57046;45.988;18.664;2023-01-25T02:16:28;102234.53;;;7.16;86.98
69772;BME280;57046;45.988;18.664;2023-01-25T02:18:55;102230.47;;;7.14;86.88
69772;BME280;57046;45.988;18.664;2023-01-25T02:21:23;102236.41;;;7.16;86.83
69772;BME280;57046;45.988;18.664;2023-01-25T02:23:58;102237.13;;;7.11;87.28
69772;BME280;57046;45.988;18.664;2023-01-25T02:26:25;102229.47;;;6.98;87.47
69772;BME280;57046;45.988;18.664;2023-01-25T02:28:55;102231.53;;;6.91;88.13
69772;BME280;57046;45.988;18.664;2023-01-25T02:31:23;102238.13;;;7.00;88.12
69772;BME280;57046;45.988;18.664;2023-01-25T02:33:49;102238.34;;;6.99;88.38
69772;BME280;57046;45.988;18.664;2023-01-25T02:36:24;102230.84;;;7.01;88.46
69772;BME280;57046;45.988;18.664;2023-01-25T02:38:55;102224.16;;;7.03;88.25
69772;BME280;57046;45.988;18.664;2023-01-25T02:43:52;102228.41;;;6.99;87.89
69772;BME280;57046;45.988;18.664;2023-01-25T02:46:22;102233.84;;;7.04;87.67
69772;BME280;57046;45.988;18.664;2023-01-25T02:48:48;102210.38;;;6.73;88.78
69772;BME280;57046;45.988;18.664;2023-01-25T02:51:13;102223.88;;;6.78;88.96
69772;BME280;57046;45.988;18.664;2023-01-25T02:53:40;102222.94;;;6.89;88.58
69772;BME280;57046;45.988;18.664;2023-01-25T02:56:05;102216.50;;;6.90;87.95
69772;BME280;57046;45.988;18.664;2023-01-25T02:58:31;102209.44;;;6.84;88.12
69772;BME280;57046;45.988;18.664;2023-01-25T03:00:57;102209.50;;;6.89;88.06
69772;BME280;57046;45.988;18.664;2023-01-25T03:03:22;102207.03;;;6.88;87.61
69772;BME280;57046;45.988;18.664;2023-01-25T03:05:47;102224.59;;;6.95;88.08
69772;BME280;57046;45.988;18.664;2023-01-25T03:08:13;102228.97;;;7.01;88.01
69772;BME280;57046;45.988;18.664;2023-01-25T03:10:38;102223.84;;;7.00;88.19
69772;BME280;57046;45.988;18.664;2023-01-25T03:13:04;102224.09;;;6.98;87.71
69772;BME280;57046;45.988;18.664;2023-01-25T03:15:29;102219.19;;;6.90;87.81
69772;BME280;57046;45.988;18.664;2023-01-25T03:17:58;102222.97;;;6.94;87.32
69772;BME280;57046;45.988;18.664;2023-01-25T03:20:23;102229.44;;;6.93;87.31
69772;BME280;57046;45.988;18.664;2023-01-25T03:22:49;102220.25;;;6.89;87.63
69772;BME280;57046;45.988;18.664;2023-01-25T03:25:14;102221.69;;;6.75;87.98
69772;BME280;57046;45.988;18.664;2023-01-25T03:27:40;102212.75;;;6.70;88.44
69772;BME280;57046;45.988;18.664;2023-01-25T03:30:06;102215.50;;;6.75;88.16
69772;BME280;57046;45.988;18.664;2023-01-25T03:32:31;102212.06;;;6.79;87.69
69772;BME280;57046;45.988;18.664;2023-01-25T03:34:57;102226.34;;;6.85;88.33
69772;BME280;57046;45.988;18.664;2023-01-25T03:37:22;102208.56;;;6.79;88.38
69772;BME280;57046;45.988;18.664;2023-01-25T03:39:47;102220.94;;;6.80;88.50
69772;BME280;57046;45.988;18.664;2023-01-25T03:42:13;102210.63;;;6.72;89.25
69772;BME280;57046;45.988;18.664;2023-01-25T03:44:38;102196.25;;;6.61;89.58
69772;BME280;57046;45.988;18.664;2023-01-25T03:47:04;102215.19;;;6.71;89.11
69772;BME280;57046;45.988;18.664;2023-01-25T03:49:29;102208.50;;;6.74;88.60
69772;BME280;57046;45.988;18.664;2023-01-25T03:51:54;102201.81;;;6.76;88.46
69772;BME280;57046;45.988;18.664;2023-01-25T03:54:20;102195.88;;;6.74;88.39
69772;BME280;57046;45.988;18.664;2023-01-25T03:56:45;102218.56;;;6.83;88.25
69772;BME280;57046;45.988;18.664;2023-01-25T03:59:11;102212.25;;;6.73;88.51
69772;BME280;57046;45.988;18.664;2023-01-25T04:01:37;102204.31;;;6.39;89.94
69772;BME280;57046;45.988;18.664;2023-01-25T04:04:02;102204.06;;;6.02;92.25
69772;BME280;57046;45.988;18.664;2023-01-25T04:06:28;102209.38;;;5.97;93.20
69772;BME280;57046;45.988;18.664;2023-01-25T04:08:54;102194.16;;;5.86;93.31
69772;BME280;57046;45.988;18.664;2023-01-25T04:11:19;102194.31;;;5.80;93.83
69772;BME280;57046;45.988;18.664;2023-01-25T04:13:44;102202.31;;;5.91;93.82
69772;BME280;57046;45.988;18.664;2023-01-25T04:16:10;102198.53;;;5.92;93.26
69772;BME280;57046;45.988;18.664;2023-01-25T04:18:35;102198.03;;;5.95;93.10
69772;BME280;57046;45.988;18.664;2023-01-25T04:21:00;102195.06;;;5.92;93.27
69772;BME280;57046;45.988;18.664;2023-01-25T04:23:26;102193.66;;;5.89;93.83
69772;BME280;57046;45.988;18.664;2023-01-25T04:25:56;102187.81;;;5.92;93.36
69772;BME280;57046;45.988;18.664;2023-01-25T04:28:22;102183.75;;;5.90;93.84
69772;BME280;57046;45.988;18.664;2023-01-25T04:30:48;102186.34;;;6.01;93.96
69772;BME280;57046;45.988;18.664;2023-01-25T04:33:13;102189.22;;;5.95;94.01
69772;BME280;57046;45.988;18.664;2023-01-25T04:35:39;102191.38;;;5.81;94.36
69772;BME280;57046;45.988;18.664;2023-01-25T04:38:04;102189.38;;;5.88;93.75
69772;BME280;57046;45.988;18.664;2023-01-25T04:40:30;102194.16;;;5.86;94.30
69772;BME280;57046;45.988;18.664;2023-01-25T04:42:56;102194.50;;;5.90;93.84
69772;BME280;57046;45.988;18.664;2023-01-25T04:45:22;102194.06;;;5.81;93.94
69772;BME280;57046;45.988;18.664;2023-01-25T04:47:48;102184.78;;;5.72;93.89
69772;BME280;57046;45.988;18.664;2023-01-25T04:50:14;102204.66;;;5.88;93.55
69772;BME280;57046;45.988;18.664;2023-01-25T04:52:39;102197.69;;;5.75;93.86
69772;BME280;57046;45.988;18.664;2023-01-25T04:55:05;102203.41;;;5.79;93.50
69772;BME280;57046;45.988;18.664;2023-01-25T04:57:30;102215.38;;;5.88;93.93
69772;BME280;57046;45.988;18.664;2023-01-25T04:59:56;102210.41;;;5.80;94.18
69772;BME280;57046;45.988;18.664;2023-01-25T05:02:21;102197.47;;;5.77;93.81
69772;BME280;57046;45.988;18.664;2023-01-25T05:04:46;102204.91;;;5.86;93.49
69772;BME280;57046;45.988;18.664;2023-01-25T05:07:12;102198.94;;;5.84;93.91
69772;BME280;57046;45.988;18.664;2023-01-25T05:09:37;102203.50;;;5.84;93.36
69772;BME280;57046;45.988;18.664;2023-01-25T05:12:02;102199.16;;;5.83;92.51
69772;BME280;57046;45.988;18.664;2023-01-25T05:14:28;102205.94;;;6.02;99.46
69772;BME280;57046;45.988;18.664;2023-01-25T05:16:53;102210.81;;;6.43;100.00
69772;BME280;57046;45.988;18.664;2023-01-25T05:19:19;102195.00;;;6.25;99.08
69772;BME280;57046;45.988;18.664;2023-01-25T05:21:44;102205.03;;;6.13;95.84
69772;BME280;57046;45.988;18.664;2023-01-25T05:24:09;102202.50;;;6.06;94.49
69772;BME280;57046;45.988;18.664;2023-01-25T05:26:35;102184.34;;;5.92;94.10
69772;BME280;57046;45.988;18.664;2023-01-25T05:29:00;102198.94;;;6.01;93.69
69772;BME280;57046;45.988;18.664;2023-01-25T05:31:25;102197.91;;;6.02;93.54
69772;BME280;57046;45.988;18.664;2023-01-25T05:33:51;102193.09;;;6.04;93.35
69772;BME280;57046;45.988;18.664;2023-01-25T05:36:16;102190.91;;;6.01;92.39
69772;BME280;57046;45.988;18.664;2023-01-25T05:38:41;102219.25;;;6.13;92.43
69772;BME280;57046;45.988;18.664;2023-01-25T05:41:07;102211.38;;;6.07;92.31
69772;BME280;57046;45.988;18.664;2023-01-25T05:43:32;102213.25;;;6.06;92.25
69772;BME280;57046;45.988;18.664;2023-01-25T05:45:58;102209.09;;;5.99;92.79
69772;BME280;57046;45.988;18.664;2023-01-25T05:48:23;102214.72;;;5.97;92.71
69772;BME280;57046;45.988;18.664;2023-01-25T05:50:48;102224.88;;;6.12;92.53
69772;BME280;57046;45.988;18.664;2023-01-25T05:53:14;102218.78;;;6.00;92.73
69772;BME280;57046;45.988;18.664;2023-01-25T05:55:39;102221.97;;;5.97;92.51
69772;BME280;57046;45.988;18.664;2023-01-25T05:58:04;102224.09;;;5.95;92.83
69772;BME280;57046;45.988;18.664;2023-01-25T06:00:30;102219.22;;;5.92;93.10
69772;BME280;57046;45.988;18.664;2023-01-25T06:02:59;102234.81;;;5.95;92.73
69772;BME280;57046;45.988;18.664;2023-01-25T06:05:24;102231.88;;;5.96;95.96
69772;BME280;57046;45.988;18.664;2023-01-25T06:07:50;102226.50;;;5.96;93.76
69772;BME280;57046;45.988;18.664;2023-01-25T06:10:15;102223.50;;;5.93;92.50
69772;BME280;57046;45.988;18.664;2023-01-25T06:12:40;102235.78;;;5.89;92.68
69772;BME280;57046;45.988;18.664;2023-01-25T06:15:06;102226.59;;;5.85;92.04
69772;BME280;57046;45.988;18.664;2023-01-25T06:17:32;102225.84;;;5.89;91.78
69772;BME280;57046;45.988;18.664;2023-01-25T06:19:57;102240.34;;;5.88;91.60
69772;BME280;57046;45.988;18.664;2023-01-25T06:22:22;102227.22;;;5.75;91.76
69772;BME280;57046;45.988;18.664;2023-01-25T06:24:48;102236.84;;;5.88;91.77
69772;BME280;57046;45.988;18.664;2023-01-25T06:27:13;102233.91;;;5.89;91.55
69772;BME280;57046;45.988;18.664;2023-01-25T06:29:38;102232.31;;;5.88;91.88
69772;BME280;57046;45.988;18.664;2023-01-25T06:32:04;102234.81;;;5.95;91.02
69772;BME280;57046;45.988;18.664;2023-01-25T06:34:29;102212.13;;;5.86;90.79
69772;BME280;57046;45.988;18.664;2023-01-25T06:36:54;102221.81;;;5.87;91.30
69772;BME280;57046;45.988;18.664;2023-01-25T06:39:20;102228.81;;;5.88;92.27
69772;BME280;57046;45.988;18.664;2023-01-25T06:41:45;102224.31;;;5.93;91.25
69772;BME280;57046;45.988;18.664;2023-01-25T06:44:11;102231.50;;;5.88;91.68
69772;BME280;57046;45.988;18.664;2023-01-25T06:46:36;102232.31;;;5.88;91.02
69772;BME280;57046;45.988;18.664;2023-01-25T06:49:02;102227.50;;;5.90;90.44
69772;BME280;57046;45.988;18.664;2023-01-25T06:51:28;102230.00;;;5.97;90.52
69772;BME280;57046;45.988;18.664;2023-01-25T06:53:53;102227.00;;;5.93;89.83
69772;BME280;57046;45.988;18.664;2023-01-25T06:56:20;102233.91;;;5.89;90.40
69772;BME280;57046;45.988;18.664;2023-01-25T06:58:47;102233.09;;;5.89;90.98
69772;BME280;57046;45.988;18.664;2023-01-25T07:01:21;102233.50;;;5.81;90.23
69772;BME280;57046;45.988;18.664;2023-01-25T07:03:48;102240.09;;;5.90;91.34
69772;BME280;57046;45.988;18.664;2023-01-25T07:06:14;102219.81;;;5.82;90.97
69772;BME280;57046;45.988;18.664;2023-01-25T07:08:39;102228.81;;;5.88;90.18
69772;BME280;57046;45.988;18.664;2023-01-25T07:11:06;102214.88;;;5.74;90.22
69772;BME280;57046;45.988;18.664;2023-01-25T07:13:32;102224.41;;;5.82;90.27
69772;BME280;57046;45.988;18.664;2023-01-25T07:16:04;102222.50;;;5.82;90.49
69772;BME280;57046;45.988;18.664;2023-01-25T07:18:30;102224.53;;;5.75;90.79
69772;BME280;57046;45.988;18.664;2023-01-25T07:23:32;102222.25;;;5.84;90.36
69772;BME280;57046;45.988;18.664;2023-01-25T07:25:58;102214.38;;;5.77;89.83
69772;BME280;57046;45.988;18.664;2023-01-25T07:28:23;102214.38;;;5.77;90.30
69772;BME280;57046;45.988;18.664;2023-01-25T07:30:48;102216.16;;;5.72;90.02
69772;BME280;57046;45.988;18.664;2023-01-25T07:33:14;102207.00;;;5.68;89.36
69772;BME280;57046;45.988;18.664;2023-01-25T07:35:39;102220.56;;;5.78;89.15
69772;BME280;57046;45.988;18.664;2023-01-25T07:38:04;102213.63;;;5.65;89.03
69772;BME280;57046;45.988;18.664;2023-01-25T07:40:30;102219.16;;;5.75;88.68
69772;BME280;57046;45.988;18.664;2023-01-25T07:42:55;102212.84;;;5.64;89.16
69772;BME280;57046;45.988;18.664;2023-01-25T07:45:20;102218.13;;;5.76;88.42
69772;BME280;57046;45.988;18.664;2023-01-25T07:47:46;102223.16;;;5.73;88.30
69772;BME280;57046;45.988;18.664;2023-01-25T07:50:12;102214.28;;;5.72;88.74
69772;BME280;57046;45.988;18.664;2023-01-25T07:52:40;102213.41;;;5.67;88.89
69772;BME280;57046;45.988;18.664;2023-01-25T07:55:06;102211.28;;;5.69;89.20
69772;BME280;57046;45.988;18.664;2023-01-25T07:57:31;102203.16;;;5.63;89.18
69772;BME280;57046;45.988;18.664;2023-01-25T07:59:57;102226.97;;;5.77;89.85
69772;BME280;57046;45.988;18.664;2023-01-25T08:02:22;102222.44;;;5.77;89.41
69772;BME280;57046;45.988;18.664;2023-01-25T08:04:47;102223.75;;;5.75;90.22
69772;BME280;57046;45.988;18.664;2023-01-25T08:07:13;102220.41;;;5.68;90.19
69772;BME280;57046;45.988;18.664;2023-01-25T08:09:40;102185.13;;;5.42;90.18
69772;BME280;57046;45.988;18.664;2023-01-25T08:12:06;102224.78;;;5.74;89.85
69772;BME280;57046;45.988;18.664;2023-01-25T08:14:32;102229.88;;;5.75;89.50
69772;BME280;57046;45.988;18.664;2023-01-25T08:16:57;102226.75;;;5.78;88.39
69772;BME280;57046;45.988;18.664;2023-01-25T08:19:23;102220.16;;;5.69;88.96
69772;BME280;57046;45.988;18.664;2023-01-25T08:21:48;102209.34;;;5.64;88.96
69772;BME280;57046;45.988;18.664;2023-01-25T08:24:13;102226.09;;;5.71;89.23
69772;BME280;57046;45.988;18.664;2023-01-25T08:26:39;102219.91;;;5.71;89.42
69772;BME280;57046;45.988;18.664;2023-01-25T08:29:05;102230.47;;;5.77;89.90
69772;BME280;57046;45.988;18.664;2023-01-25T08:31:32;102229.44;;;5.78;89.33
69772;BME280;57046;45.988;18.664;2023-01-25T08:33:59;102231.53;;;5.76;88.84
69772;BME280;57046;45.988;18.664;2023-01-25T08:36:25;102234.31;;;5.64;89.51
69772;BME280;57046;45.988;18.664;2023-01-25T08:39:02;102243.13;;;5.65;89.52
69772;BME280;57046;45.988;18.664;2023-01-25T08:41:29;102229.72;;;5.65;89.26
69772;BME280;57046;45.988;18.664;2023-01-25T08:43:55;102232.41;;;5.65;88.34
69772;BME280;57046;45.988;18.664;2023-01-25T08:46:22;102228.69;;;5.66;88.09
69772;BME280;57046;45.988;18.664;2023-01-25T08:48:53;102238.91;;;5.69;87.99
69772;BME280;57046;45.988;18.664;2023-01-25T08:51:18;102242.50;;;5.75;88.28
69772;BME280;57046;45.988;18.664;2023-01-25T08:53:43;102236.66;;;5.61;88.41
69772;BME280;57046;45.988;18.664;2023-01-25T08:56:11;102242.97;;;5.72;88.56
69772;BME280;57046;45.988;18.664;2023-01-25T08:58:39;102231.84;;;5.63;88.07
69772;BME280;57046;45.988;18.664;2023-01-25T09:01:07;102241.59;;;5.69;88.09
69772;BME280;57046;45.988;18.664;2023-01-25T09:03:40;102221.84;;;5.58;88.26
69772;BME280;57046;45.988;18.664;2023-01-25T09:06:07;102223.69;;;5.58;87.35
69772;BME280;57046;45.988;18.664;2023-01-25T09:08:32;102235.56;;;5.62;87.70
69772;BME280;57046;45.988;18.664;2023-01-25T09:11:02;102227.47;;;5.57;87.85
69772;BME280;57046;45.988;18.664;2023-01-25T09:13:28;102218.75;;;5.50;87.19
69772;BME280;57046;45.988;18.664;2023-01-25T09:16:05;102215.50;;;5.48;88.42
69772;BME280;57046;45.988;18.664;2023-01-25T09:18:32;102220.47;;;5.56;87.39
69772;BME280;57046;45.988;18.664;2023-01-25T09:20:58;102219.41;;;5.57;88.10
69772;BME280;57046;45.988;18.664;2023-01-25T09:23:24;102219.81;;;5.65;87.84
69772;BME280;57046;45.988;18.664;2023-01-25T09:25:57;102223.09;;;5.68;87.65
69772;BME280;57046;45.988;18.664;2023-01-25T09:28:23;102203.66;;;5.60;88.47
69772;BME280;57046;45.988;18.664;2023-01-25T09:31:15;102206.84;;;5.74;87.73
69772;BME280;57046;45.988;18.664;2023-01-25T09:33:41;102220.78;;;5.76;87.13
69772;BME280;57046;45.988;18.664;2023-01-25T09:36:07;102215.19;;;5.78;87.85
69772;BME280;57046;45.988;18.664;2023-01-25T09:38:32;102206.91;;;5.79;87.87
69772;BME280;57046;45.988;18.664;2023-01-25T09:43:58;102200.72;;;5.79;87.55
69772;BME280;57046;45.988;18.664;2023-01-25T09:46:40;102179.91;;;5.69;87.05
69772;BME280;57046;45.988;18.664;2023-01-25T09:52:21;102200.00;;;5.83;87.12
69772;BME280;57046;45.988;18.664;2023-01-25T09:54:50;102196.03;;;5.86;88.05
69772;BME280;57046;45.988;18.664;2023-01-25T09:57:35;102193.81;;;5.83;86.78
69772;BME280;57046;45.988;18.664;2023-01-25T10:05:27;102183.91;;;5.83;87.50
69772;BME280;57046;45.988;18.664;2023-01-25T10:08:35;102180.03;;;5.91;88.31
69772;BME280;57046;45.988;18.664;2023-01-25T10:13:45;102161.78;;;5.93;87.03
69772;BME280;57046;45.988;18.664;2023-01-25T10:16:29;102158.94;;;5.99;85.70
69772;BME280;57046;45.988;18.664;2023-01-25T10:21:42;102131.59;;;6.02;86.14
69772;BME280;57046;45.988;18.664;2023-01-25T10:27:01;102115.91;;;6.11;84.23
69772;BME280;57046;45.988;18.664;2023-01-25T10:29:34;102124.91;;;6.22;86.19
69772;BME280;57046;45.988;18.664;2023-01-25T10:34:48;102105.31;;;6.21;83.61
69772;BME280;57046;45.988;18.664;2023-01-25T10:37:19;102104.59;;;6.31;82.91
69772;BME280;57046;45.988;18.664;2023-01-25T10:39:56;102106.56;;;6.35;82.96
69772;BME280;57046;45.988;18.664;2023-01-25T10:42:25;102102.19;;;6.29;82.63
69772;BME280;57046;45.988;18.664;2023-01-25T10:44:51;102101.41;;;6.34;83.58
69772;BME280;57046;45.988;18.664;2023-01-25T10:47:22;102103.16;;;6.45;83.69
69772;BME280;57046;45.988;18.664;2023-01-25T10:49:52;102103.97;;;6.45;83.12
69772;BME280;57046;45.988;18.664;2023-01-25T10:55:15;102099.03;;;6.37;81.18
69772;BME280;57046;45.988;18.664;2023-01-25T10:57:48;102096.13;;;6.39;79.82
69772;BME280;57046;45.988;18.664;2023-01-25T11:00:26;102095.47;;;6.53;79.49
69772;BME280;57046;45.988;18.664;2023-01-25T11:02:54;102080.13;;;6.49;79.43
69772;BME280;57046;45.988;18.664;2023-01-25T11:07:51;102075.66;;;6.59;80.21
69772;BME280;57046;45.988;18.664;2023-01-25T11:10:31;102072.63;;;6.51;79.79
69772;BME280;57046;45.988;18.664;2023-01-25T11:15:49;102071.69;;;6.67;81.33
69772;BME280;57046;45.988;18.664;2023-01-25T11:18:23;102067.75;;;6.75;80.58
69772;BME280;57046;45.988;18.664;2023-01-25T11:21:11;102067.50;;;6.76;80.53
69772;BME280;57046;45.988;18.664;2023-01-25T11:23:37;102052.81;;;6.84;80.31
69772;BME280;57046;45.988;18.664;2023-01-25T11:28:37;102033.94;;;6.79;79.08
69772;BME280;57046;45.988;18.664;2023-01-25T11:31:02;102045.22;;;6.81;78.89
69772;BME280;57046;45.988;18.664;2023-01-25T11:33:27;102037.38;;;6.74;78.42
69772;BME280;57046;45.988;18.664;2023-01-25T11:38:21;102035.34;;;6.86;80.54
69772;BME280;57046;45.988;18.664;2023-01-25T11:46:27;102016.56;;;6.91;78.59
69772;BME280;57046;45.988;18.664;2023-01-25T11:49:26;102015.28;;;6.94;79.23
69772;BME280;57046;45.988;18.664;2023-01-25T11:54:50;102017.75;;;7.05;80.63
69772;BME280;57046;45.988;18.664;2023-01-25T12:05:42;102006.34;;;7.25;79.49
69772;BME280;57046;45.988;18.664;2023-01-25T12:16:25;101993.00;;;7.40;78.72
69772;BME280;57046;45.988;18.664;2023-01-25T12:19:02;101984.63;;;7.37;78.66
69772;BME280;57046;45.988;18.664;2023-01-25T12:30:12;101971.13;;;7.27;77.21
69772;BME280;57046;45.988;18.664;2023-01-25T12:32:50;101982.50;;;7.39;78.38
69772;BME280;57046;45.988;18.664;2023-01-25T12:37:47;101979.81;;;7.39;76.93
69772;BME280;57046;45.988;18.664;2023-01-25T12:40:17;101980.31;;;7.36;77.15
69772;BME280;57046;45.988;18.664;2023-01-25T12:42:52;101971.44;;;7.30;76.23
69772;BME280;57046;45.988;18.664;2023-01-25T12:45:24;101968.75;;;7.30;76.23
69772;BME280;57046;45.988;18.664;2023-01-25T12:48:30;101979.09;;;7.11;76.34
69772;BME280;57046;45.988;18.664;2023-01-25T12:50:58;101964.34;;;7.14;75.14
69772;BME280;57046;45.988;18.664;2023-01-25T12:53:38;101970.56;;;7.25;77.23
69772;BME280;57046;45.988;18.664;2023-01-25T12:56:06;101941.97;;;7.03;76.18
69772;BME280;57046;45.988;18.664;2023-01-25T13:02:01;101974.06;;;7.25;76.40
69772;BME280;57046;45.988;18.664;2023-01-25T13:04:54;101967.34;;;7.23;76.23
69772;BME280;57046;45.988;18.664;2023-01-25T13:07:28;101966.25;;;7.18;76.66
69772;BME280;57046;45.988;18.664;2023-01-25T13:10:15;101966.28;;;7.24;76.81
69772;BME280;57046;45.988;18.664;2023-01-25T13:13:02;101966.53;;;7.22;75.90
69772;BME280;57046;45.988;18.664;2023-01-25T13:15:43;101963.84;;;7.17;77.50
69772;BME280;57046;45.988;18.664;2023-01-25T13:21:00;101956.59;;;7.18;77.57
69772;BME280;57046;45.988;18.664;2023-01-25T13:23:41;101960.56;;;7.10;77.79
69772;BME280;57046;45.988;18.664;2023-01-25T13:28:49;101949.75;;;7.05;76.67
69772;BME280;57046;45.988;18.664;2023-01-25T13:37:16;101945.78;;;7.07;77.49
69772;BME280;57046;45.988;18.664;2023-01-25T13:44:47;101938.19;;;7.04;78.99
69772;BME280;57046;45.988;18.664;2023-01-25T13:47:25;101941.13;;;6.98;78.72
69772;BME280;57046;45.988;18.664;2023-01-25T13:50:17;101925.78;;;6.93;78.90
69772;BME280;57046;45.988;18.664;2023-01-25T13:53:14;101925.84;;;7.03;78.89
69772;BME280;57046;45.988;18.664;2023-01-25T13:56:01;101922.56;;;6.96;79.40
69772;BME280;57046;45.988;18.664;2023-01-25T13:58:33;101925.84;;;7.03;80.14
69772;BME280;57046;45.988;18.664;2023-01-25T14:01:04;101925.78;;;6.93;79.29
69772;BME280;57046;45.988;18.664;2023-01-25T14:03:35;101916.94;;;6.98;78.97
69772;BME280;57046;45.988;18.664;2023-01-25T14:06:06;101914.75;;;6.90;79.83
69772;BME280;57046;45.988;18.664;2023-01-25T14:08:38;101899.16;;;6.87;79.11
69772;BME280;57046;45.988;18.664;2023-01-25T14:11:07;101908.84;;;6.93;80.07
69772;BME280;57046;45.988;18.664;2023-01-25T14:13:33;101908.56;;;6.94;79.72
69772;BME280;57046;45.988;18.664;2023-01-25T14:16:00;101907.78;;;6.94;79.96
69772;BME280;57046;45.988;18.664;2023-01-25T14:18:35;101909.38;;;6.95;79.56
69772;BME280;57046;45.988;18.664;2023-01-25T14:21:19;101915.00;;;6.88;78.96
69772;BME280;57046;45.988;18.664;2023-01-25T14:23:46;101909.63;;;6.88;78.61
69772;BME280;57046;45.988;18.664;2023-01-25T14:28:43;101902.63;;;6.87;78.75
69772;BME280;57046;45.988;18.664;2023-01-25T14:31:23;101896.72;;;6.85;78.90
69772;BME280;57046;45.988;18.664;2023-01-25T14:33:50;101913.94;;;6.89;78.21
69772;BME280;57046;45.988;18.664;2023-01-25T14:36:16;101910.66;;;6.82;78.76
69772;BME280;57046;45.988;18.664;2023-01-25T14:38:41;101901.25;;;6.80;79.20
69772;BME280;57046;45.988;18.664;2023-01-25T14:43:35;101906.63;;;6.85;78.56
69772;BME280;57046;45.988;18.664;2023-01-25T14:46:26;101907.69;;;6.79;78.20
69772;BME280;57046;45.988;18.664;2023-01-25T14:51:49;101897.69;;;6.69;78.75
69772;BME280;57046;45.988;18.664;2023-01-25T14:54:18;101884.19;;;6.64;78.93
69772;BME280;57046;45.988;18.664;2023-01-25T14:57:05;101894.72;;;6.71;79.33
69772;BME280;57046;45.988;18.664;2023-01-25T14:59:40;101893.66;;;6.72;79.53